Time;durP1;ratioP1;P1;durP2;ratioP2;P2;SDS_P1;SDS_P2;PMS_P1;PMS_P2;Temp;Humidity;BMP_temperature;BMP_pressure;BME280_temperature;BME280_humidity;BME280_pressure;Samples;Min_cycle;Max_cycle;Signal;HPM_P1;HPM_P2
2023/04/09 00:00:41;;;;;;;86.25;41.38;;;6.80;96.80;;;;;;5011871;28;20100;-77
2023/04/09 00:03:06;;;;;;;84.43;40.33;;;6.90;96.80;;;;;;5015363;28;20454;-78
2023/04/09 00:05:32;;;;;;;80.20;40.67;;;6.90;96.80;;;;;;5015508;28;20144;-78
2023/04/09 00:07:57;;;;;;;81.25;39.35;;;6.90;96.60;;;;;;5013618;28;20072;-77
2023/04/09 00:10:23;;;;;;;79.97;38.30;;;6.80;96.50;;;;;;5007639;28;20030;-77
2023/04/09 00:12:48;;;;;;;81.45;40.67;;;6.80;96.50;;;;;;5011684;28;20046;-77
2023/04/09 00:15:14;;;;;;;71.85;35.53;;;6.80;96.60;;;;;;5011758;28;20041;-78
2023/04/09 00:17:40;;;;;;;72.50;37.15;;;6.80;96.40;;;;;;5013402;28;20033;-77
2023/04/09 00:20:06;;;;;;;70.60;36.47;;;6.80;96.30;;;;;;5012545;28;20408;-79
2023/04/09 00:22:32;;;;;;;75.93;36.35;;;6.80;96.20;;;;;;5014706;28;20434;-77
2023/04/09 00:24:58;;;;;;;66.25;34.95;;;6.80;96.20;;;;;;5020893;28;20094;-77
2023/04/09 00:27:23;;;;;;;75.60;35.65;;;6.80;96.00;;;;;;5012046;28;20037;-77
2023/04/09 00:29:49;;;;;;;61.53;33.03;;;6.80;96.00;;;;;;5013088;28;20106;-78
2023/04/09 00:32:14;;;;;;;69.45;32.92;;;6.80;96.00;;;;;;5009774;28;20084;-77
2023/04/09 00:34:40;;;;;;;61.08;29.90;;;6.80;96.00;;;;;;5011920;28;20033;-77
2023/04/09 00:37:05;;;;;;;63.08;31.15;;;6.80;96.00;;;;;;5011564;28;20552;-77
2023/04/09 00:39:31;;;;;;;60.45;31.27;;;6.90;95.90;;;;;;5014349;28;20141;-79
2023/04/09 00:41:57;;;;;;;61.38;31.65;;;6.80;95.90;;;;;;5009091;28;20052;-77
2023/04/09 00:44:23;;;;;;;53.40;28.48;;;6.80;95.80;;;;;;5003245;28;20022;-77
2023/04/09 00:46:49;;;;;;;49.83;28.23;;;6.90;95.90;;;;;;5009104;28;20065;-77
2023/04/09 00:49:14;;;;;;;54.38;27.58;;;6.80;95.80;;;;;;5011045;28;20029;-77
2023/04/09 00:51:40;;;;;;;51.28;27.02;;;6.80;95.70;;;;;;5012940;28;20123;-76
2023/04/09 00:54:06;;;;;;;53.50;27.58;;;6.80;95.50;;;;;;5012510;28;20026;-77
2023/04/09 00:56:33;;;;;;;50.72;26.45;;;6.80;95.60;;;;;;5009522;28;20122;-77
2023/04/09 00:58:59;;;;;;;41.15;24.23;;;6.80;95.50;;;;;;5007806;28;20129;-78
2023/04/09 01:01:25;;;;;;;45.63;24.77;;;6.80;95.40;;;;;;5011790;28;20168;-79
2023/04/09 01:03:50;;;;;;;50.67;25.38;;;6.80;95.40;;;;;;5010763;28;20057;-79
2023/04/09 01:06:36;;;;;;;42.83;24.30;;;6.80;95.30;;;;;;5013591;28;20048;-77
2023/04/09 01:09:04;;;;;;;44.88;24.15;;;6.80;95.30;;;;;;5003052;28;20485;-78
2023/04/09 01:11:55;;;;;;;45.20;24.63;;;6.80;95.20;;;;;;5008615;28;20082;-77
2023/04/09 01:14:37;;;;;;;41.42;22.80;;;6.80;95.30;;;;;;5008341;28;20034;-77
2023/04/09 01:17:07;;;;;;;44.67;23.42;;;6.80;95.30;;;;;;5000095;28;20038;-77
2023/04/09 01:19:44;;;;;;;45.30;23.05;;;6.80;95.20;;;;;;5007914;28;20133;-77
2023/04/09 01:22:34;;;;;;;40.75;23.10;;;6.80;95.20;;;;;;5007543;28;20061;-79
2023/04/09 01:25:08;;;;;;;41.88;24.27;;;6.80;95.20;;;;;;5006268;28;20046;-77
2023/04/09 01:27:45;;;;;;;39.33;22.48;;;6.80;95.10;;;;;;5007873;28;20030;-77
2023/04/09 01:30:13;;;;;;;44.13;23.05;;;6.80;95.10;;;;;;5008397;28;20037;-81
2023/04/09 01:32:40;;;;;;;40.75;21.83;;;6.70;95.00;;;;;;5007478;28;20037;-79
2023/04/09 01:35:07;;;;;;;41.90;20.88;;;6.70;94.90;;;;;;5007833;28;20139;-77
2023/04/09 01:37:34;;;;;;;42.55;21.55;;;6.70;94.90;;;;;;5006868;28;20042;-79
2023/04/09 01:40:00;;;;;;;40.53;21.17;;;6.70;94.90;;;;;;4988295;28;20030;-76
2023/04/09 01:42:27;;;;;;;35.03;20.60;;;6.70;94.90;;;;;;5009514;28;20071;-76
2023/04/09 01:44:53;;;;;;;37.58;20.90;;;6.70;94.80;;;;;;5003576;28;20041;-76
2023/04/09 01:47:20;;;;;;;40.28;20.63;;;6.70;94.80;;;;;;5006034;28;20114;-76
2023/04/09 01:49:45;;;;;;;38.30;21.52;;;6.70;94.70;;;;;;5003925;28;20144;-78
2023/04/09 01:52:11;;;;;;;38.78;21.67;;;6.70;94.70;;;;;;5007682;28;20112;-79
2023/04/09 01:54:36;;;;;;;39.13;20.80;;;6.70;94.80;;;;;;5006815;28;20121;-78
2023/04/09 01:57:02;;;;;;;36.53;21.25;;;6.70;94.70;;;;;;4997642;28;20046;-81
2023/04/09 01:59:27;;;;;;;35.78;21.17;;;6.70;94.60;;;;;;5010430;28;20050;-77
2023/04/09 02:02:00;;;;;;;33.78;19.88;;;6.70;94.70;;;;;;5004690;28;20084;-77
2023/04/09 02:04:35;;;;;;;36.95;20.13;;;6.70;94.60;;;;;;5006509;28;20022;-78
2023/04/09 02:07:19;;;;;;;33.55;19.45;;;6.70;94.70;;;;;;5012864;28;20061;-77
2023/04/09 02:09:47;;;;;;;33.75;18.35;;;6.70;94.70;;;;;;5000851;28;20066;-79
2023/04/09 02:12:17;;;;;;;38.47;20.20;;;6.60;94.60;;;;;;5004501;28;20386;-77
2023/04/09 02:14:45;;;;;;;30.85;18.13;;;6.60;94.70;;;;;;5004595;28;20483;-77
2023/04/09 02:17:11;;;;;;;33.08;18.65;;;6.70;94.70;;;;;;5012164;28;20034;-77
2023/04/09 02:19:41;;;;;;;32.28;18.38;;;6.60;94.60;;;;;;5001170;28;20447;-77
2023/04/09 02:22:07;;;;;;;34.25;18.90;;;6.60;94.60;;;;;;5010687;28;20091;-78
2023/04/09 02:24:33;;;;;;;30.50;19.48;;;6.60;94.60;;;;;;5009434;28;20391;-78
2023/04/09 02:26:58;;;;;;;33.88;17.92;;;6.60;94.60;;;;;;5006105;28;20034;-78
2023/04/09 02:29:24;;;;;;;33.30;18.27;;;6.60;94.50;;;;;;5006280;28;20137;-77
2023/04/09 02:31:51;;;;;;;33.60;18.95;;;6.60;94.60;;;;;;5007243;28;20299;-77
2023/04/09 02:34:17;;;;;;;33.30;18.55;;;6.60;94.50;;;;;;5005994;28;20061;-77
2023/04/09 02:36:43;;;;;;;31.08;19.02;;;6.60;94.50;;;;;;5007077;28;20058;-77
2023/04/09 02:39:08;;;;;;;35.78;19.58;;;6.60;94.50;;;;;;5006919;28;20046;-80
2023/04/09 02:41:34;;;;;;;35.45;18.70;;;6.60;94.50;;;;;;5006211;28;20327;-78
2023/04/09 02:43:59;;;;;;;32.67;18.73;;;6.60;94.40;;;;;;5006946;28;20056;-77
2023/04/09 02:46:25;;;;;;;31.80;17.98;;;6.60;94.40;;;;;;5001088;28;20394;-77
2023/04/09 02:48:50;;;;;;;30.92;17.90;;;6.60;94.30;;;;;;5013246;28;20026;-77
2023/04/09 02:51:16;;;;;;;35.13;18.40;;;6.60;94.30;;;;;;5004630;28;20052;-77
2023/04/09 02:53:41;;;;;;;32.03;18.70;;;6.60;94.30;;;;;;5006119;28;20344;-78
2023/04/09 02:56:07;;;;;;;29.60;17.65;;;6.60;94.20;;;;;;5007534;28;20088;-79
2023/04/09 02:58:32;;;;;;;31.50;18.20;;;6.60;94.30;;;;;;5003795;28;20180;-78
2023/04/09 03:00:58;;;;;;;36.22;18.25;;;6.50;94.30;;;;;;4993801;28;20026;-77
2023/04/09 03:03:23;;;;;;;32.15;18.60;;;6.50;94.30;;;;;;5010841;28;20132;-77
2023/04/09 03:05:49;;;;;;;30.00;17.23;;;6.50;94.20;;;;;;5015096;28;20056;-78
2023/04/09 03:08:14;;;;;;;32.17;17.90;;;6.50;94.30;;;;;;5007275;28;20129;-78
2023/04/09 03:10:40;;;;;;;32.60;18.67;;;6.50;94.40;;;;;;5007324;28;20431;-77
2023/04/09 03:13:05;;;;;;;34.42;18.05;;;6.50;94.50;;;;;;5006293;28;20076;-77
2023/04/09 03:15:31;;;;;;;35.53;18.58;;;6.50;94.50;;;;;;5007679;28;20144;-77
2023/04/09 03:17:56;;;;;;;33.72;19.45;;;6.50;94.40;;;;;;5006089;28;20080;-77
2023/04/09 03:20:22;;;;;;;29.70;17.13;;;6.50;94.50;;;;;;5005142;28;20123;-77
2023/04/09 03:22:47;;;;;;;33.10;19.00;;;6.40;94.40;;;;;;5004891;28;20401;-78
2023/04/09 03:25:13;;;;;;;33.28;19.10;;;6.40;94.50;;;;;;5007369;28;20029;-79
2023/04/09 03:27:38;;;;;;;29.98;18.92;;;6.50;94.60;;;;;;5001982;28;20030;-77
2023/04/09 03:30:04;;;;;;;34.22;19.25;;;6.40;94.60;;;;;;5004986;28;20029;-76
2023/04/09 03:32:30;;;;;;;31.58;18.83;;;6.50;94.50;;;;;;5005988;28;20328;-79
2023/04/09 03:34:55;;;;;;;32.22;18.20;;;6.40;94.40;;;;;;4990505;28;20026;-77
2023/04/09 03:37:21;;;;;;;34.17;18.63;;;6.50;94.40;;;;;;5000043;28;20050;-77
2023/04/09 03:39:46;;;;;;;32.88;18.95;;;6.50;94.40;;;;;;5006627;28;20029;-78
2023/04/09 03:42:12;;;;;;;30.02;18.23;;;6.50;94.50;;;;;;5005824;28;20079;-83
2023/04/09 03:44:37;;;;;;;30.83;17.98;;;6.50;94.40;;;;;;5012039;28;20056;-77
2023/04/09 03:47:02;;;;;;;31.80;18.40;;;6.50;94.30;;;;;;5009817;28;20139;-77
2023/04/09 03:49:28;;;;;;;33.40;18.30;;;6.40;94.40;;;;;;5004046;28;20030;-79
2023/04/09 03:51:54;;;;;;;36.85;19.15;;;6.40;94.40;;;;;;5003241;28;20200;-77
2023/04/09 03:54:19;;;;;;;34.83;18.80;;;6.40;94.40;;;;;;5003163;28;20034;-78
2023/04/09 03:56:45;;;;;;;34.72;19.08;;;6.40;94.40;;;;;;5011742;28;20036;-77
2023/04/09 03:59:10;;;;;;;35.08;19.27;;;6.40;94.50;;;;;;5008362;28;20394;-77
2023/04/09 04:01:35;;;;;;;36.08;19.23;;;6.40;94.50;;;;;;5019566;28;20109;-78
2023/04/09 04:04:01;;;;;;;33.42;18.95;;;6.40;94.60;;;;;;5016572;28;20059;-78
2023/04/09 04:06:26;;;;;;;31.73;17.67;;;6.40;94.60;;;;;;5006753;28;20034;-77
2023/04/09 04:08:52;;;;;;;30.48;18.75;;;6.40;94.60;;;;;;5002613;28;20084;-80
2023/04/09 04:11:18;;;;;;;35.00;19.50;;;6.40;94.60;;;;;;5004743;28;20065;-78
2023/04/09 04:13:43;;;;;;;33.33;19.23;;;6.40;94.60;;;;;;5005299;28;20390;-76
2023/04/09 04:16:09;;;;;;;36.17;18.77;;;6.40;94.60;;;;;;5007167;28;20045;-78
2023/04/09 04:18:35;;;;;;;36.38;19.08;;;6.40;94.60;;;;;;4999099;28;20042;-76
2023/04/09 04:21:01;;;;;;;34.90;19.48;;;6.40;94.70;;;;;;5005952;28;20040;-78
2023/04/09 04:23:26;;;;;;;34.08;18.52;;;6.40;94.60;;;;;;4996425;28;20026;-76
2023/04/09 04:25:52;;;;;;;35.35;19.67;;;6.40;94.60;;;;;;5000683;28;20183;-77
2023/04/09 04:28:18;;;;;;;31.95;18.50;;;6.40;94.70;;;;;;5002898;28;20102;-79
2023/04/09 04:30:43;;;;;;;34.60;19.20;;;6.40;94.70;;;;;;5003860;28;20159;-79
2023/04/09 04:33:09;;;;;;;37.40;18.63;;;6.40;94.70;;;;;;4997160;28;20102;-79
2023/04/09 04:35:34;;;;;;;32.95;18.95;;;6.40;94.70;;;;;;5001642;28;20037;-79
2023/04/09 04:38:00;;;;;;;30.92;18.45;;;6.40;94.70;;;;;;5003171;28;20026;-79
2023/04/09 04:40:26;;;;;;;36.08;19.40;;;6.40;94.70;;;;;;5007796;28;20044;-79
2023/04/09 04:42:51;;;;;;;34.25;19.25;;;6.40;94.60;;;;;;5010057;28;20120;-79
2023/04/09 04:45:17;;;;;;;31.67;19.20;;;6.40;94.60;;;;;;5004768;28;20029;-79
2023/04/09 04:47:42;;;;;;;34.53;19.17;;;6.40;94.60;;;;;;5008963;28;20040;-79
2023/04/09 04:50:08;;;;;;;36.10;18.85;;;6.40;94.60;;;;;;5004271;28;20061;-79
2023/04/09 04:52:34;;;;;;;32.15;17.67;;;6.40;94.40;;;;;;5015256;28;20698;-79
2023/04/09 04:55:01;;;;;;;30.27;18.67;;;6.40;94.40;;;;;;5005135;28;20053;-80
2023/04/09 04:57:26;;;;;;;31.45;18.17;;;6.40;94.30;;;;;;5004139;28;20033;-81
2023/04/09 04:59:52;;;;;;;32.80;18.55;;;6.40;94.30;;;;;;5009377;28;20038;-81
2023/04/09 05:02:18;;;;;;;35.90;19.25;;;6.40;94.30;;;;;;5004424;28;20519;-80
2023/04/09 05:04:43;;;;;;;31.10;18.35;;;6.40;94.20;;;;;;5008601;28;20026;-80
2023/04/09 05:07:08;;;;;;;34.20;19.38;;;6.40;94.20;;;;;;5018171;28;20398;-80
2023/04/09 05:09:34;;;;;;;37.40;19.48;;;6.40;94.20;;;;;;4992498;28;20055;-80
2023/04/09 05:12:00;;;;;;;33.47;19.23;;;6.40;94.30;;;;;;5008570;28;20037;-79
2023/04/09 05:14:25;;;;;;;35.83;18.88;;;6.50;94.30;;;;;;5008398;28;20385;-80
2023/04/09 05:16:51;;;;;;;36.20;18.92;;;6.50;94.30;;;;;;5009234;28;20034;-79
2023/04/09 05:19:16;;;;;;;36.35;19.20;;;6.50;94.30;;;;;;5006750;28;20317;-79
2023/04/09 05:21:42;;;;;;;39.47;21.80;;;6.50;94.20;;;;;;5007796;28;20096;-79
2023/04/09 05:24:07;;;;;;;36.03;20.52;;;6.50;94.30;;;;;;5006576;28;20109;-79
2023/04/09 05:26:33;;;;;;;37.83;20.45;;;6.60;94.20;;;;;;5007510;28;20041;-81
2023/04/09 05:28:58;;;;;;;33.67;19.70;;;6.60;94.10;;;;;;5009505;28;20038;-81
2023/04/09 05:31:24;;;;;;;37.95;20.17;;;6.60;94.00;;;;;;4998657;28;20135;-82
2023/04/09 05:33:49;;;;;;;35.70;18.73;;;6.60;94.00;;;;;;5004300;28;20044;-83
2023/04/09 05:36:16;;;;;;;37.58;20.13;;;6.60;93.90;;;;;;4996918;28;20061;-83
2023/04/09 05:38:43;;;;;;;38.85;20.08;;;6.60;94.00;;;;;;4997935;28;20057;-83
2023/04/09 05:41:08;;;;;;;31.48;18.58;;;6.70;93.90;;;;;;4999907;28;20036;-82
2023/04/09 05:43:34;;;;;;;37.22;19.65;;;6.70;93.90;;;;;;5013413;28;20037;-83
2023/04/09 05:46:00;;;;;;;38.67;20.23;;;6.80;93.80;;;;;;5011718;28;20049;-85
2023/04/09 05:48:25;;;;;;;34.40;19.85;;;6.80;93.60;;;;;;5009963;28;20469;-83
2023/04/09 05:50:51;;;;;;;36.25;20.17;;;6.80;93.40;;;;;;5005897;28;20110;-83
2023/04/09 05:53:18;;;;;;;38.20;19.10;;;6.90;93.20;;;;;;5006001;28;20074;-83
2023/04/09 05:55:44;;;;;;;34.97;20.10;;;6.90;93.00;;;;;;5007102;28;20037;-82
2023/04/09 05:58:11;;;;;;;37.78;20.67;;;6.90;92.90;;;;;;5004233;28;20168;-83
2023/04/09 06:00:36;;;;;;;36.58;19.55;;;7.00;92.70;;;;;;5007495;28;20084;-87
2023/04/09 06:03:02;;;;;;;35.40;20.20;;;7.00;92.70;;;;;;4992068;28;20029;-88
2023/04/09 06:05:27;;;;;;;33.42;18.65;;;7.10;92.60;;;;;;5009035;28;20045;-85
2023/04/09 06:07:53;;;;;;;35.17;18.60;;;7.20;92.30;;;;;;5010999;28;20113;-86
2023/04/09 06:10:18;;;;;;;37.13;19.15;;;7.30;92.30;;;;;;5011670;28;20091;-84
2023/04/09 06:12:44;;;;;;;31.52;19.20;;;7.40;92.00;;;;;;5013194;28;20088;-87
2023/04/09 06:15:10;;;;;;;30.98;18.70;;;7.50;91.50;;;;;;5007902;28;20352;-87
2023/04/09 06:17:35;;;;;;;35.88;19.17;;;7.60;91.20;;;;;;5010204;28;20033;-87
2023/04/09 06:25:11;;;;;;;32.83;18.55;;;8.10;89.40;;;;;;4851482;23;20057;-88
2023/04/09 06:27:37;;;;;;;35.83;19.85;;;8.10;89.10;;;;;;5136977;22;20082;-86
2023/04/09 06:30:03;;;;;;;29.85;17.88;;;8.10;88.70;;;;;;5045589;28;20021;-87
2023/04/09 06:32:29;;;;;;;28.98;17.63;;;8.20;88.50;;;;;;5057427;28;20196;-82
2023/04/09 06:34:54;;;;;;;31.63;17.80;;;8.10;88.20;;;;;;5050214;28;20476;-82
2023/04/09 06:37:20;;;;;;;32.50;18.40;;;8.10;88.40;;;;;;5045269;28;20052;-80
2023/04/09 06:39:45;;;;;;;31.45;17.73;;;8.20;88.30;;;;;;5048997;28;20113;-80
2023/04/09 06:42:11;;;;;;;33.03;18.73;;;8.10;87.80;;;;;;5059260;28;20052;-81
2023/04/09 06:44:36;;;;;;;29.60;17.85;;;8.20;88.00;;;;;;5032271;28;20037;-82
2023/04/09 06:47:02;;;;;;;27.90;16.75;;;8.30;88.00;;;;;;5047133;28;20135;-85
2023/04/09 06:49:27;;;;;;;30.45;16.77;;;8.40;87.60;;;;;;5050154;28;20625;-83
2023/04/09 06:51:53;;;;;;;30.85;17.75;;;8.50;87.60;;;;;;5046885;28;20033;-84
2023/04/09 06:54:19;;;;;;;27.25;15.68;;;8.50;86.70;;;;;;5039270;28;20041;-83
2023/04/09 06:56:45;;;;;;;27.58;17.20;;;8.40;86.10;;;;;;5041531;28;20132;-83
2023/04/09 06:59:10;;;;;;;28.95;16.67;;;8.50;87.10;;;;;;5045315;28;20056;-83
2023/04/09 07:01:36;;;;;;;27.45;16.75;;;8.50;86.60;;;;;;5030209;28;20032;-83
2023/04/09 07:04:02;;;;;;;26.40;15.18;;;8.60;87.00;;;;;;5027162;28;20033;-83
2023/04/09 07:06:28;;;;;;;21.65;14.82;;;8.70;86.30;;;;;;5037213;28;20044;-84
2023/04/09 07:08:53;;;;;;;20.60;12.95;;;8.90;85.60;;;;;;5040349;28;20033;-84
2023/04/09 07:11:19;;;;;;;24.58;15.25;;;8.70;83.40;;;;;;5043394;28;20037;-83
2023/04/09 07:13:44;;;;;;;24.88;14.50;;;8.70;84.10;;;;;;5046785;28;20374;-84
2023/04/09 07:16:10;;;;;;;23.30;13.85;;;8.60;84.60;;;;;;5046248;28;20041;-85
2023/04/09 07:18:35;;;;;;;19.70;12.50;;;8.40;83.40;;;;;;5041556;28;20045;-85
2023/04/09 07:21:01;;;;;;;24.70;14.25;;;8.30;84.20;;;;;;5020747;28;20021;-85
2023/04/09 07:23:26;;;;;;;21.60;13.63;;;8.40;84.50;;;;;;5042880;28;20114;-86
2023/04/09 07:25:52;;;;;;;19.65;12.82;;;8.40;83.70;;;;;;5026182;28;20083;-83
2023/04/09 07:28:17;;;;;;;21.55;12.93;;;8.60;84.90;;;;;;5041260;28;20056;-85
2023/04/09 07:30:45;;;;;;;20.00;12.93;;;9.10;84.00;;;;;;5046039;28;20035;-84
2023/04/09 07:33:10;;;;;;;20.05;12.88;;;9.00;82.30;;;;;;5036289;28;20024;-86
2023/04/09 07:35:36;;;;;;;22.60;13.13;;;9.10;82.20;;;;;;5045219;28;20396;-87
2023/04/09 07:38:01;;;;;;;23.05;13.70;;;9.10;81.20;;;;;;5028691;28;20048;-85
2023/04/09 07:40:27;;;;;;;22.20;13.68;;;9.40;82.10;;;;;;5046352;28;20079;-85
2023/04/09 07:42:53;;;;;;;21.58;13.32;;;9.80;82.60;;;;;;5031197;28;20032;-84
2023/04/09 07:45:18;;;;;;;21.75;13.77;;;9.70;80.00;;;;;;5042995;28;20043;-83
2023/04/09 07:47:44;;;;;;;24.45;13.75;;;9.60;79.90;;;;;;5040360;28;20079;-82
2023/04/09 07:50:10;;;;;;;19.23;13.68;;;9.60;79.90;;;;;;5044848;28;20072;-82
2023/04/09 07:52:35;;;;;;;20.95;13.98;;;9.50;81.30;;;;;;5023469;28;20037;-83
2023/04/09 07:55:01;;;;;;;19.60;13.73;;;9.60;80.40;;;;;;5039061;28;20095;-82
2023/04/09 07:57:27;;;;;;;23.35;13.82;;;9.60;81.00;;;;;;5046203;28;20093;-84
2023/04/09 07:59:53;;;;;;;20.52;12.75;;;9.60;80.60;;;;;;5050433;28;20334;-85
2023/04/09 08:02:18;;;;;;;21.50;13.35;;;9.40;81.00;;;;;;5042514;28;20029;-81
2023/04/09 08:04:44;;;;;;;23.75;14.23;;;9.90;81.10;;;;;;5056813;28;20429;-84
2023/04/09 08:07:10;;;;;;;21.75;13.23;;;10.10;78.90;;;;;;5027603;28;20045;-84
2023/04/09 08:09:35;;;;;;;21.38;13.07;;;9.60;78.80;;;;;;5042364;28;20355;-80
2023/04/09 08:12:01;;;;;;;21.30;13.13;;;9.60;80.00;;;;;;5033727;28;20033;-80
2023/04/09 08:14:26;;;;;;;20.48;13.38;;;9.50;79.40;;;;;;5036083;28;20030;-80
2023/04/09 08:16:52;;;;;;;21.52;13.60;;;10.00;80.20;;;;;;5038371;28;20033;-80
2023/04/09 08:19:18;;;;;;;19.13;12.75;;;10.00;79.90;;;;;;5040113;28;20030;-80
2023/04/09 08:21:47;;;;;;;20.85;13.13;;;10.70;79.90;;;;;;5038503;28;20076;-79
2023/04/09 08:24:13;;;;;;;22.00;12.85;;;11.10;77.70;;;;;;5043035;28;20077;-80
2023/04/09 08:26:40;;;;;;;20.63;13.13;;;10.50;76.70;;;;;;5040963;28;20099;-80
2023/04/09 08:29:06;;;;;;;19.83;12.85;;;10.10;78.40;;;;;;5044365;28;20409;-81
2023/04/09 08:31:33;;;;;;;20.27;12.77;;;10.60;78.90;;;;;;5042978;28;20584;-80
2023/04/09 08:33:58;;;;;;;17.83;11.82;;;10.80;76.70;;;;;;5044050;28;20486;-81
2023/04/09 08:36:25;;;;;;;18.67;12.57;;;11.10;76.00;;;;;;5044974;28;20136;-80
2023/04/09 08:38:51;;;;;;;20.30;12.80;;;11.20;76.40;;;;;;5038420;28;20045;-80
2023/04/09 08:41:23;;;;;;;17.95;11.70;;;11.50;75.90;;;;;;5045709;28;20017;-80
2023/04/09 08:43:50;;;;;;;17.23;11.35;;;11.80;73.80;;;;;;5022406;28;20029;-78
2023/04/09 08:46:16;;;;;;;20.92;12.18;;;11.90;72.70;;;;;;5044137;28;20454;-83
2023/04/09 08:48:44;;;;;;;20.50;12.85;;;12.20;72.10;;;;;;5041282;28;20109;-77
2023/04/09 08:51:13;;;;;;;17.38;11.82;;;12.10;70.30;;;;;;5042263;28;20029;-78
2023/04/09 08:53:41;;;;;;;18.75;13.00;;;12.10;72.10;;;;;;5046213;28;20033;-78
2023/04/09 08:56:07;;;;;;;20.45;12.55;;;12.50;70.80;;;;;;5042956;28;20056;-78
2023/04/09 08:58:33;;;;;;;20.58;12.90;;;12.30;71.00;;;;;;5046874;28;20060;-79
2023/04/09 09:00:58;;;;;;;18.27;11.85;;;12.60;68.80;;;;;;5049291;28;20457;-77
2023/04/09 09:03:24;;;;;;;15.98;11.35;;;12.80;68.20;;;;;;5042348;28;20060;-78
2023/04/09 09:05:49;;;;;;;18.52;12.00;;;12.40;69.20;;;;;;5044225;28;20109;-79
2023/04/09 09:08:25;;;;;;;17.67;11.13;;;12.80;67.60;;;;;;5042426;28;20433;-78
2023/04/09 09:10:51;;;;;;;16.42;11.57;;;12.70;66.80;;;;;;5039237;28;20361;-81
2023/04/09 09:13:24;;;;;;;19.33;12.90;;;13.00;66.80;;;;;;5040737;28;20040;-79
2023/04/09 09:15:54;;;;;;;19.63;12.23;;;11.70;70.30;;;;;;5045540;28;20171;-80
2023/04/09 09:18:20;;;;;;;18.42;12.05;;;11.40;71.00;;;;;;5049973;28;20057;-88
2023/04/09 09:20:46;;;;;;;19.88;13.07;;;12.00;70.40;;;;;;5053533;28;20043;-87
2023/04/09 09:23:12;;;;;;;18.08;11.65;;;12.30;68.10;;;;;;5049843;28;20043;-85
2023/04/09 09:25:39;;;;;;;21.92;12.45;;;13.10;70.20;;;;;;5047139;28;20079;-84
2023/04/09 09:28:10;;;;;;;18.00;11.98;;;13.80;66.30;;;;;;5046107;28;20107;-86
2023/04/09 09:30:38;;;;;;;16.55;11.82;;;12.60;66.60;;;;;;5042467;28;20032;-83
2023/04/09 09:33:06;;;;;;;17.08;12.13;;;12.70;67.00;;;;;;5047483;28;20037;-84
2023/04/09 09:35:48;;;;;;;17.02;11.73;;;12.70;68.20;;;;;;5044460;28;20382;-84
2023/04/09 09:38:15;;;;;;;17.88;11.32;;;13.00;65.30;;;;;;5040364;28;20037;-82
2023/04/09 09:40:41;;;;;;;17.80;12.52;;;13.70;65.40;;;;;;5041492;28;20123;-87
2023/04/09 09:43:07;;;;;;;18.20;11.93;;;13.50;65.60;;;;;;5050591;28;20120;-81
2023/04/09 09:45:32;;;;;;;17.95;12.23;;;13.90;63.70;;;;;;5042168;28;20434;-83
2023/04/09 09:47:58;;;;;;;17.98;12.60;;;13.40;64.00;;;;;;5045762;28;20044;-87
2023/04/09 09:50:24;;;;;;;17.55;11.63;;;13.30;64.60;;;;;;5042555;28;20200;-85
2023/04/09 09:52:56;;;;;;;16.52;11.70;;;13.40;63.50;;;;;;5041293;28;20033;-83
2023/04/09 09:55:22;;;;;;;16.02;11.70;;;13.80;63.10;;;;;;5039021;28;20041;-84
2023/04/09 09:57:49;;;;;;;18.33;11.90;;;13.30;65.20;;;;;;5046753;28;20105;-83
2023/04/09 10:00:15;;;;;;;17.38;12.27;;;13.60;64.50;;;;;;5043813;28;20425;-84
2023/04/09 10:02:55;;;;;;;17.40;12.02;;;13.60;63.80;;;;;;5045002;28;20128;-83
2023/04/09 10:05:25;;;;;;;18.90;12.45;;;13.40;63.10;;;;;;5047662;28;20044;-86
2023/04/09 10:07:56;;;;;;;15.82;11.73;;;13.20;64.60;;;;;;5044059;28;20075;-86
2023/04/09 10:10:23;;;;;;;16.80;11.98;;;13.10;66.60;;;;;;5022830;28;20358;-83
2023/04/09 10:12:50;;;;;;;17.17;11.95;;;12.50;65.60;;;;;;5044684;28;20037;-84
2023/04/09 10:15:16;;;;;;;19.33;12.60;;;12.30;66.60;;;;;;5039290;28;20078;-87
2023/04/09 10:17:41;;;;;;;18.15;11.63;;;12.40;66.70;;;;;;5013577;28;20071;-84
2023/04/09 10:20:13;;;;;;;19.67;12.68;;;12.40;66.80;;;;;;5039656;28;20410;-83
2023/04/09 10:22:39;;;;;;;18.70;11.75;;;13.00;66.10;;;;;;5024095;28;20351;-82
2023/04/09 10:25:05;;;;;;;19.02;12.25;;;13.10;65.50;;;;;;5043834;28;20382;-87
2023/04/09 10:27:31;;;;;;;18.73;12.57;;;13.40;64.30;;;;;;5049531;28;20458;-87
2023/04/09 10:29:58;;;;;;;17.05;12.15;;;13.70;64.40;;;;;;5037776;28;20033;-84
2023/04/09 10:32:25;;;;;;;17.27;12.40;;;13.40;63.90;;;;;;5045292;28;20028;-85
2023/04/09 10:34:51;;;;;;;16.05;11.07;;;13.10;64.30;;;;;;5046824;28;20040;-85
2023/04/09 10:37:26;;;;;;;17.83;12.25;;;13.20;64.50;;;;;;5034358;28;20117;-84
2023/04/09 10:39:52;;;;;;;18.92;12.45;;;13.60;63.70;;;;;;5045997;28;20121;-85
2023/04/09 10:42:26;;;;;;;17.77;12.07;;;14.30;63.90;;;;;;5044787;28;20074;-87
2023/04/09 10:45:15;;;;;;;18.38;12.05;;;14.90;61.50;;;;;;5035886;28;20024;-85
2023/04/09 10:47:42;;;;;;;16.45;11.60;;;15.60;59.90;;;;;;5041090;28;20029;-87
2023/04/09 10:50:43;;;;;;;17.38;12.15;;;15.30;60.10;;;;;;5049070;28;20048;-82
2023/04/09 10:53:22;;;;;;;17.98;11.20;;;15.40;58.40;;;;;;4989251;28;20049;-81
2023/04/09 10:55:49;;;;;;;15.35;11.00;;;15.40;57.10;;;;;;5033236;28;20181;-82
2023/04/09 10:58:15;;;;;;;16.48;11.30;;;15.20;58.60;;;;;;5047496;28;20017;-84
2023/04/09 11:00:45;;;;;;;16.15;11.25;;;15.50;58.20;;;;;;5043630;28;20032;-83
2023/04/09 11:03:26;;;;;;;16.63;11.43;;;15.90;55.70;;;;;;5042585;28;20500;-84
2023/04/09 11:05:56;;;;;;;14.95;10.30;;;16.20;55.80;;;;;;5031126;28;20040;-83
2023/04/09 11:08:22;;;;;;;14.77;10.52;;;15.30;55.70;;;;;;5038056;28;20601;-83
2023/04/09 11:10:48;;;;;;;14.82;11.55;;;15.40;57.20;;;;;;5037917;28;20120;-84
2023/04/09 11:13:15;;;;;;;17.65;11.48;;;15.20;57.10;;;;;;5040692;28;20056;-83
2023/04/09 11:15:42;;;;;;;16.08;11.18;;;15.20;55.40;;;;;;5029887;28;20029;-83
2023/04/09 11:18:12;;;;;;;14.48;9.88;;;15.40;55.50;;;;;;5046085;28;20052;-83
2023/04/09 11:20:39;;;;;;;13.90;10.05;;;15.50;56.00;;;;;;5045866;28;20021;-83
2023/04/09 11:23:05;;;;;;;15.52;10.13;;;16.40;55.20;;;;;;5027847;28;20118;-83
2023/04/09 11:25:32;;;;;;;14.75;10.40;;;16.30;53.80;;;;;;5026214;28;20342;-83
2023/04/09 11:27:58;;;;;;;15.70;11.00;;;16.10;54.60;;;;;;5038201;28;20071;-83
2023/04/09 11:30:25;;;;;;;14.55;10.48;;;16.20;54.20;;;;;;5047078;28;20066;-84
2023/04/09 11:32:50;;;;;;;13.15;9.88;;;17.00;52.10;;;;;;5047347;28;20101;-83
2023/04/09 11:35:18;;;;;;;12.75;9.23;;;16.80;52.50;;;;;;5046529;28;20535;-83
2023/04/09 11:37:44;;;;;;;13.38;9.68;;;17.00;50.90;;;;;;5045599;28;20101;-83
2023/04/09 11:40:23;;;;;;;11.82;9.30;;;16.80;51.90;;;;;;5045360;28;20102;-83
2023/04/09 11:42:53;;;;;;;14.23;9.15;;;17.10;50.00;;;;;;5047936;28;20539;-83
2023/04/09 11:45:21;;;;;;;13.27;9.68;;;17.00;51.30;;;;;;5046017;28;20098;-83
2023/04/09 11:47:46;;;;;;;17.05;9.25;;;16.50;51.60;;;;;;5047592;28;20330;-83
2023/04/09 11:50:14;;;;;;;13.02;9.35;;;17.40;49.70;;;;;;5045751;28;20112;-83
2023/04/09 11:52:40;;;;;;;15.10;10.27;;;17.40;49.20;;;;;;5044807;28;20036;-83
2023/04/09 11:55:07;;;;;;;13.98;10.02;;;17.60;49.50;;;;;;5044925;28;20087;-83
2023/04/09 11:57:43;;;;;;;14.23;9.43;;;17.70;48.10;;;;;;5050201;28;20044;-83
2023/04/09 12:00:11;;;;;;;12.30;8.88;;;17.60;50.90;;;;;;5052879;28;20029;-83
2023/04/09 12:02:41;;;;;;;12.07;8.85;;;18.00;49.40;;;;;;5058301;28;20035;-82
2023/04/09 12:05:08;;;;;;;12.07;8.90;;;18.50;48.80;;;;;;5047647;28;20044;-83
2023/04/09 12:07:34;;;;;;;12.43;8.77;;;18.10;47.40;;;;;;5043655;28;20048;-83
2023/04/09 12:10:09;;;;;;;13.07;8.98;;;18.50;47.30;;;;;;5044561;28;20032;-83
2023/04/09 12:12:45;;;;;;;11.70;8.63;;;18.40;47.00;;;;;;5035890;28;20036;-83
2023/04/09 12:15:19;;;;;;;11.50;8.70;;;18.00;47.60;;;;;;5035612;28;20048;-83
2023/04/09 12:17:54;;;;;;;11.48;9.05;;;19.00;44.30;;;;;;5043817;28;20037;-83
2023/04/09 12:20:38;;;;;;;11.05;8.50;;;18.90;46.40;;;;;;5046750;28;20440;-82
2023/04/09 12:23:04;;;;;;;10.98;8.93;;;20.00;45.30;;;;;;5032674;28;20033;-82
2023/04/09 12:25:38;;;;;;;14.27;8.90;;;19.80;42.40;;;;;;5040647;28;20458;-82
2023/04/09 12:28:05;;;;;;;11.80;8.80;;;19.70;44.10;;;;;;5046628;28;20053;-83
2023/04/09 12:30:32;;;;;;;10.82;8.07;;;18.50;45.50;;;;;;5044745;28;20318;-82
2023/04/09 12:32:58;;;;;;;15.25;9.38;;;18.10;46.20;;;;;;5047829;28;20083;-82
2023/04/09 12:35:23;;;;;;;13.15;9.57;;;18.30;47.60;;;;;;5040948;28;20466;-83
2023/04/09 12:37:50;;;;;;;12.15;9.32;;;18.00;46.40;;;;;;5026814;28;20136;-83